sensor_id;sensor_type;location;lat;lon;timestamp;P1;durP1;ratioP1;P2;durP2;ratioP2
10729;SDS011;5416;59.258;18.128;2023-02-13T00:00:31;2.83;;;2.72;;
10729;SDS011;5416;59.258;18.128;2023-02-13T00:02:59;3.63;;;3.53;;
10729;SDS011;5416;59.258;18.128;2023-02-13T00:05:26;3.50;;;3.40;;
10729;SDS011;5416;59.258;18.128;2023-02-13T00:07:55;2.92;;;2.83;;
10729;SDS011;5416;59.258;18.128;2023-02-13T00:10:22;3.00;;;2.90;;
10729;SDS011;5416;59.258;18.128;2023-02-13T00:12:49;3.22;;;3.13;;
10729;SDS011;5416;59.258;18.128;2023-02-13T00:15:17;3.10;;;3.00;;
10729;SDS011;5416;59.258;18.128;2023-02-13T00:17:44;3.50;;;3.40;;
10729;SDS011;5416;59.258;18.128;2023-02-13T00:20:11;2.83;;;2.72;;
10729;SDS011;5416;59.258;18.128;2023-02-13T00:22:39;3.10;;;3.00;;
10729;SDS011;5416;59.258;18.128;2023-02-13T00:25:08;3.40;;;3.30;;
10729;SDS011;5416;59.258;18.128;2023-02-13T00:27:35;3.28;;;3.17;;
10729;SDS011;5416;59.258;18.128;2023-02-13T00:30:02;3.43;;;3.33;;
10729;SDS011;5416;59.258;18.128;2023-02-13T00:32:30;2.83;;;2.72;;
10729;SDS011;5416;59.258;18.128;2023-02-13T00:34:58;3.10;;;3.00;;
10729;SDS011;5416;59.258;18.128;2023-02-13T00:37:27;3.00;;;2.90;;
10729;SDS011;5416;59.258;18.128;2023-02-13T00:39:54;2.90;;;2.80;;
10729;SDS011;5416;59.258;18.128;2023-02-13T00:42:23;3.13;;;3.03;;
10729;SDS011;5416;59.258;18.128;2023-02-13T00:44:51;2.80;;;2.70;;
10729;SDS011;5416;59.258;18.128;2023-02-13T00:47:18;2.72;;;2.63;;
10729;SDS011;5416;59.258;18.128;2023-02-13T00:49:45;3.00;;;2.90;;
10729;SDS011;5416;59.258;18.128;2023-02-13T00:52:13;3.25;;;3.15;;
10729;SDS011;5416;59.258;18.128;2023-02-13T00:54:40;3.30;;;3.20;;
10729;SDS011;5416;59.258;18.128;2023-02-13T00:57:07;3.33;;;3.22;;
10729;SDS011;5416;59.258;18.128;2023-02-13T00:59:36;2.90;;;2.80;;
10729;SDS011;5416;59.258;18.128;2023-02-13T01:02:03;2.87;;;2.77;;
10729;SDS011;5416;59.258;18.128;2023-02-13T01:04:31;3.20;;;3.10;;
10729;SDS011;5416;59.258;18.128;2023-02-13T01:06:58;3.33;;;3.22;;
10729;SDS011;5416;59.258;18.128;2023-02-13T01:09:25;3.38;;;3.28;;
10729;SDS011;5416;59.258;18.128;2023-02-13T01:11:53;2.50;;;2.40;;
10729;SDS011;5416;59.258;18.128;2023-02-13T01:14:20;3.20;;;3.10;;
10729;SDS011;5416;59.258;18.128;2023-02-13T01:16:49;3.25;;;3.15;;
10729;SDS011;5416;59.258;18.128;2023-02-13T01:19:17;3.30;;;3.20;;
10729;SDS011;5416;59.258;18.128;2023-02-13T01:21:44;3.17;;;3.08;;
10729;SDS011;5416;59.258;18.128;2023-02-13T01:24:11;2.80;;;2.70;;
10729;SDS011;5416;59.258;18.128;2023-02-13T01:26:38;3.17;;;3.08;;
10729;SDS011;5416;59.258;18.128;2023-02-13T01:29:06;2.95;;;2.85;;
10729;SDS011;5416;59.258;18.128;2023-02-13T01:31:33;3.60;;;3.50;;
10729;SDS011;5416;59.258;18.128;2023-02-13T01:34:02;2.90;;;2.80;;
10729;SDS011;5416;59.258;18.128;2023-02-13T01:36:29;2.75;;;2.65;;
10729;SDS011;5416;59.258;18.128;2023-02-13T01:38:57;2.80;;;2.70;;
10729;SDS011;5416;59.258;18.128;2023-02-13T01:41:25;3.15;;;3.05;;
10729;SDS011;5416;59.258;18.128;2023-02-13T01:43:53;3.30;;;3.20;;
10729;SDS011;5416;59.258;18.128;2023-02-13T01:46:22;3.20;;;3.10;;
10729;SDS011;5416;59.258;18.128;2023-02-13T01:48:51;2.80;;;2.70;;
10729;SDS011;5416;59.258;18.128;2023-02-13T01:51:22;3.03;;;2.92;;
10729;SDS011;5416;59.258;18.128;2023-02-13T01:53:53;2.67;;;2.58;;
10729;SDS011;5416;59.258;18.128;2023-02-13T01:56:23;3.20;;;3.10;;
10729;SDS011;5416;59.258;18.128;2023-02-13T01:58:52;3.42;;;3.33;;
10729;SDS011;5416;59.258;18.128;2023-02-13T02:01:20;3.05;;;2.95;;
10729;SDS011;5416;59.258;18.128;2023-02-13T02:03:48;2.85;;;2.75;;
10729;SDS011;5416;59.258;18.128;2023-02-13T02:06:18;3.17;;;3.08;;
10729;SDS011;5416;59.258;18.128;2023-02-13T02:08:48;3.20;;;3.10;;
10729;SDS011;5416;59.258;18.128;2023-02-13T02:11:21;3.53;;;3.43;;
10729;SDS011;5416;59.258;18.128;2023-02-13T02:13:50;2.57;;;2.47;;
10729;SDS011;5416;59.258;18.128;2023-02-13T02:16:17;2.75;;;2.65;;
10729;SDS011;5416;59.258;18.128;2023-02-13T02:18:45;2.93;;;2.83;;
10729;SDS011;5416;59.258;18.128;2023-02-13T02:24:11;2.90;;;2.80;;
10729;SDS011;5416;59.258;18.128;2023-02-13T02:26:57;3.17;;;3.08;;
10729;SDS011;5416;59.258;18.128;2023-02-13T02:29:34;3.10;;;3.00;;
10729;SDS011;5416;59.258;18.128;2023-02-13T02:32:16;2.95;;;2.85;;
10729;SDS011;5416;59.258;18.128;2023-02-13T02:34:49;3.20;;;3.10;;
10729;SDS011;5416;59.258;18.128;2023-02-13T02:37:30;3.28;;;3.17;;
10729;SDS011;5416;59.258;18.128;2023-02-13T02:40:05;3.05;;;2.95;;
10729;SDS011;5416;59.258;18.128;2023-02-13T02:42:38;3.00;;;2.90;;
10729;SDS011;5416;59.258;18.128;2023-02-13T02:45:09;3.15;;;3.05;;
10729;SDS011;5416;59.258;18.128;2023-02-13T02:47:41;3.15;;;3.05;;
10729;SDS011;5416;59.258;18.128;2023-02-13T02:50:33;3.42;;;3.33;;
10729;SDS011;5416;59.258;18.128;2023-02-13T02:53:06;3.08;;;2.97;;
10729;SDS011;5416;59.258;18.128;2023-02-13T02:55:38;2.77;;;2.67;;
10729;SDS011;5416;59.258;18.128;2023-02-13T02:58:08;3.00;;;2.90;;
10729;SDS011;5416;59.258;18.128;2023-02-13T03:00:55;3.20;;;3.10;;
10729;SDS011;5416;59.258;18.128;2023-02-13T03:03:42;3.33;;;3.22;;
10729;SDS011;5416;59.258;18.128;2023-02-13T03:06:29;3.42;;;3.33;;
10729;SDS011;5416;59.258;18.128;2023-02-13T03:08:59;3.40;;;3.30;;
10729;SDS011;5416;59.258;18.128;2023-02-13T03:11:56;3.42;;;3.33;;
10729;SDS011;5416;59.258;18.128;2023-02-13T03:14:41;2.80;;;2.70;;
10729;SDS011;5416;59.258;18.128;2023-02-13T03:17:09;3.53;;;3.42;;
10729;SDS011;5416;59.258;18.128;2023-02-13T03:20:00;3.20;;;3.10;;
10729;SDS011;5416;59.258;18.128;2023-02-13T03:22:54;3.30;;;3.20;;
10729;SDS011;5416;59.258;18.128;2023-02-13T03:25:25;2.60;;;2.50;;
10729;SDS011;5416;59.258;18.128;2023-02-13T03:28:00;2.92;;;2.83;;
10729;SDS011;5416;59.258;18.128;2023-02-13T03:30:50;2.95;;;2.85;;
10729;SDS011;5416;59.258;18.128;2023-02-13T03:33:23;2.90;;;2.80;;
10729;SDS011;5416;59.258;18.128;2023-02-13T03:36:01;3.15;;;3.05;;
10729;SDS011;5416;59.258;18.128;2023-02-13T03:38:49;3.40;;;3.30;;
10729;SDS011;5416;59.258;18.128;2023-02-13T03:41:20;3.78;;;3.67;;
10729;SDS011;5416;59.258;18.128;2023-02-13T03:43:52;2.60;;;2.50;;
10729;SDS011;5416;59.258;18.128;2023-02-13T03:46:22;2.90;;;2.80;;
10729;SDS011;5416;59.258;18.128;2023-02-13T03:48:50;3.10;;;3.00;;
10729;SDS011;5416;59.258;18.128;2023-02-13T03:51:38;3.47;;;3.38;;
10729;SDS011;5416;59.258;18.128;2023-02-13T03:54:13;3.13;;;3.03;;
10729;SDS011;5416;59.258;18.128;2023-02-13T03:56:42;3.00;;;2.90;;
10729;SDS011;5416;59.258;18.128;2023-02-13T03:59:28;3.58;;;3.47;;
10729;SDS011;5416;59.258;18.128;2023-02-13T04:01:58;2.80;;;2.70;;
10729;SDS011;5416;59.258;18.128;2023-02-13T04:04:29;3.08;;;2.97;;
10729;SDS011;5416;59.258;18.128;2023-02-13T04:06:59;2.83;;;2.72;;
10729;SDS011;5416;59.258;18.128;2023-02-13T04:09:29;3.22;;;3.13;;
10729;SDS011;5416;59.258;18.128;2023-02-13T04:11:58;3.30;;;3.20;;
10729;SDS011;5416;59.258;18.128;2023-02-13T04:14:29;3.37;;;3.27;;
10729;SDS011;5416;59.258;18.128;2023-02-13T04:16:58;2.70;;;2.60;;
10729;SDS011;5416;59.258;18.128;2023-02-13T04:19:28;2.85;;;2.75;;
10729;SDS011;5416;59.258;18.128;2023-02-13T04:21:57;3.33;;;3.23;;
10729;SDS011;5416;59.258;18.128;2023-02-13T04:24:27;3.28;;;3.17;;
10729;SDS011;5416;59.258;18.128;2023-02-13T04:26:54;3.42;;;3.33;;
10729;SDS011;5416;59.258;18.128;2023-02-13T04:29:23;2.90;;;2.80;;
10729;SDS011;5416;59.258;18.128;2023-02-13T04:31:50;2.90;;;2.80;;
10729;SDS011;5416;59.258;18.128;2023-02-13T04:34:18;3.15;;;3.05;;
10729;SDS011;5416;59.258;18.128;2023-02-13T04:36:45;3.20;;;3.10;;
10729;SDS011;5416;59.258;18.128;2023-02-13T04:39:12;3.45;;;3.35;;
10729;SDS011;5416;59.258;18.128;2023-02-13T04:41:42;2.90;;;2.80;;
10729;SDS011;5416;59.258;18.128;2023-02-13T04:44:09;3.10;;;3.00;;
10729;SDS011;5416;59.258;18.128;2023-02-13T04:46:36;3.00;;;2.90;;
10729;SDS011;5416;59.258;18.128;2023-02-13T04:49:04;3.00;;;2.90;;
10729;SDS011;5416;59.258;18.128;2023-02-13T04:51:31;3.75;;;3.65;;
10729;SDS011;5416;59.258;18.128;2023-02-13T04:53:58;2.80;;;2.70;;
10729;SDS011;5416;59.258;18.128;2023-02-13T04:56:25;2.70;;;2.60;;
10729;SDS011;5416;59.258;18.128;2023-02-13T04:58:54;3.13;;;3.03;;
10729;SDS011;5416;59.258;18.128;2023-02-13T05:01:21;3.17;;;3.08;;
10729;SDS011;5416;59.258;18.128;2023-02-13T05:03:49;3.50;;;3.40;;
10729;SDS011;5416;59.258;18.128;2023-02-13T05:06:16;2.88;;;2.78;;
10729;SDS011;5416;59.258;18.128;2023-02-13T05:08:43;3.30;;;3.20;;
10729;SDS011;5416;59.258;18.128;2023-02-13T05:11:11;2.70;;;2.60;;
10729;SDS011;5416;59.258;18.128;2023-02-13T05:13:38;3.00;;;2.90;;
10729;SDS011;5416;59.258;18.128;2023-02-13T05:16:06;3.42;;;3.33;;
10729;SDS011;5416;59.258;18.128;2023-02-13T05:18:34;2.92;;;2.83;;
10729;SDS011;5416;59.258;18.128;2023-02-13T05:21:01;2.92;;;2.83;;
10729;SDS011;5416;59.258;18.128;2023-02-13T05:23:46;3.50;;;3.40;;
10729;SDS011;5416;59.258;18.128;2023-02-13T05:26:13;3.03;;;2.92;;
10729;SDS011;5416;59.258;18.128;2023-02-13T05:28:41;3.15;;;3.05;;
10729;SDS011;5416;59.258;18.128;2023-02-13T05:31:27;3.30;;;3.20;;
10729;SDS011;5416;59.258;18.128;2023-02-13T05:33:54;2.72;;;2.63;;
10729;SDS011;5416;59.258;18.128;2023-02-13T05:36:21;3.17;;;3.08;;
10729;SDS011;5416;59.258;18.128;2023-02-13T05:38:49;3.00;;;2.90;;
10729;SDS011;5416;59.258;18.128;2023-02-13T05:41:16;3.30;;;3.20;;
10729;SDS011;5416;59.258;18.128;2023-02-13T05:43:43;3.03;;;2.92;;
10729;SDS011;5416;59.258;18.128;2023-02-13T05:46:11;2.80;;;2.70;;
10729;SDS011;5416;59.258;18.128;2023-02-13T05:48:39;2.80;;;2.70;;
10729;SDS011;5416;59.258;18.128;2023-02-13T05:51:07;2.90;;;2.80;;
10729;SDS011;5416;59.258;18.128;2023-02-13T05:53:35;3.20;;;3.10;;
10729;SDS011;5416;59.258;18.128;2023-02-13T05:56:02;3.50;;;3.40;;
10729;SDS011;5416;59.258;18.128;2023-02-13T05:58:30;3.13;;;3.03;;
10729;SDS011;5416;59.258;18.128;2023-02-13T06:00:57;3.03;;;2.92;;
10729;SDS011;5416;59.258;18.128;2023-02-13T06:03:25;3.03;;;2.92;;
10729;SDS011;5416;59.258;18.128;2023-02-13T06:05:54;3.08;;;2.97;;
10729;SDS011;5416;59.258;18.128;2023-02-13T06:08:21;3.50;;;3.40;;
10729;SDS011;5416;59.258;18.128;2023-02-13T06:10:49;2.80;;;2.70;;
10729;SDS011;5416;59.258;18.128;2023-02-13T06:13:16;2.88;;;2.78;;
10729;SDS011;5416;59.258;18.128;2023-02-13T06:15:44;2.88;;;2.78;;
10729;SDS011;5416;59.258;18.128;2023-02-13T06:18:11;3.30;;;3.20;;
10729;SDS011;5416;59.258;18.128;2023-02-13T06:20:39;3.15;;;3.05;;
10729;SDS011;5416;59.258;18.128;2023-02-13T06:23:07;3.63;;;3.53;;
10729;SDS011;5416;59.258;18.128;2023-02-13T06:25:35;2.90;;;2.80;;
10729;SDS011;5416;59.258;18.128;2023-02-13T06:28:02;2.80;;;2.70;;
10729;SDS011;5416;59.258;18.128;2023-02-13T06:30:30;3.30;;;3.20;;
10729;SDS011;5416;59.258;18.128;2023-02-13T06:32:57;3.00;;;2.90;;
10729;SDS011;5416;59.258;18.128;2023-02-13T06:35:24;3.58;;;3.47;;
10729;SDS011;5416;59.258;18.128;2023-02-13T06:37:52;3.10;;;3.00;;
10729;SDS011;5416;59.258;18.128;2023-02-13T06:40:21;3.30;;;3.20;;
10729;SDS011;5416;59.258;18.128;2023-02-13T06:42:48;3.10;;;3.00;;
10729;SDS011;5416;59.258;18.128;2023-02-13T06:45:15;3.00;;;2.90;;
10729;SDS011;5416;59.258;18.128;2023-02-13T06:47:43;2.88;;;2.78;;
10729;SDS011;5416;59.258;18.128;2023-02-13T06:50:11;2.70;;;2.60;;
10729;SDS011;5416;59.258;18.128;2023-02-13T06:52:41;2.67;;;2.58;;
10729;SDS011;5416;59.258;18.128;2023-02-13T06:55:11;3.08;;;2.97;;
10729;SDS011;5416;59.258;18.128;2023-02-13T06:57:39;3.20;;;3.10;;
10729;SDS011;5416;59.258;18.128;2023-02-13T07:00:07;3.45;;;3.35;;
10729;SDS011;5416;59.258;18.128;2023-02-13T07:02:37;2.63;;;2.53;;
10729;SDS011;5416;59.258;18.128;2023-02-13T07:05:04;3.03;;;2.92;;
10729;SDS011;5416;59.258;18.128;2023-02-13T07:07:33;3.00;;;2.90;;
10729;SDS011;5416;59.258;18.128;2023-02-13T07:10:01;3.30;;;3.20;;
10729;SDS011;5416;59.258;18.128;2023-02-13T07:12:28;3.55;;;3.45;;
10729;SDS011;5416;59.258;18.128;2023-02-13T07:14:57;2.80;;;2.70;;
10729;SDS011;5416;59.258;18.128;2023-02-13T07:17:24;2.95;;;2.85;;
10729;SDS011;5416;59.258;18.128;2023-02-13T07:19:51;3.10;;;3.00;;
10729;SDS011;5416;59.258;18.128;2023-02-13T07:22:19;3.60;;;3.50;;
10729;SDS011;5416;59.258;18.128;2023-02-13T07:24:46;3.72;;;3.63;;
10729;SDS011;5416;59.258;18.128;2023-02-13T07:27:13;3.07;;;2.97;;
10729;SDS011;5416;59.258;18.128;2023-02-13T07:29:41;3.40;;;3.30;;
10729;SDS011;5416;59.258;18.128;2023-02-13T07:32:10;3.50;;;3.40;;
10729;SDS011;5416;59.258;18.128;2023-02-13T07:34:37;3.70;;;3.60;;
10729;SDS011;5416;59.258;18.128;2023-02-13T07:37:04;3.70;;;3.60;;
10729;SDS011;5416;59.258;18.128;2023-02-13T07:39:31;3.33;;;3.22;;
10729;SDS011;5416;59.258;18.128;2023-02-13T07:41:59;3.15;;;3.05;;
10729;SDS011;5416;59.258;18.128;2023-02-13T07:44:26;2.80;;;2.70;;
10729;SDS011;5416;59.258;18.128;2023-02-13T07:46:53;3.08;;;2.97;;
10729;SDS011;5416;59.258;18.128;2023-02-13T07:49:22;3.50;;;3.40;;
10729;SDS011;5416;59.258;18.128;2023-02-13T07:51:49;3.42;;;3.33;;
10729;SDS011;5416;59.258;18.128;2023-02-13T07:54:17;4.18;;;4.07;;
10729;SDS011;5416;59.258;18.128;2023-02-13T07:56:44;3.63;;;3.53;;
10729;SDS011;5416;59.258;18.128;2023-02-13T07:59:11;3.50;;;3.40;;
10729;SDS011;5416;59.258;18.128;2023-02-13T08:01:39;3.45;;;3.35;;
10729;SDS011;5416;59.258;18.128;2023-02-13T08:04:06;3.40;;;3.30;;
10729;SDS011;5416;59.258;18.128;2023-02-13T08:06:35;4.28;;;4.18;;
10729;SDS011;5416;59.258;18.128;2023-02-13T08:09:04;3.92;;;3.83;;
10729;SDS011;5416;59.258;18.128;2023-02-13T08:11:49;3.60;;;3.50;;
10729;SDS011;5416;59.258;18.128;2023-02-13T08:14:20;3.78;;;3.67;;
10729;SDS011;5416;59.258;18.128;2023-02-13T08:16:47;3.80;;;3.70;;
10729;SDS011;5416;59.258;18.128;2023-02-13T08:19:14;3.67;;;3.57;;
10729;SDS011;5416;59.258;18.128;2023-02-13T08:21:43;4.05;;;3.95;;
10729;SDS011;5416;59.258;18.128;2023-02-13T08:24:10;4.03;;;3.92;;
10729;SDS011;5416;59.258;18.128;2023-02-13T08:26:38;3.47;;;3.37;;
10729;SDS011;5416;59.258;18.128;2023-02-13T08:29:06;3.67;;;3.58;;
10729;SDS011;5416;59.258;18.128;2023-02-13T08:31:34;3.83;;;3.72;;
10729;SDS011;5416;59.258;18.128;2023-02-13T08:34:01;4.00;;;3.90;;
10729;SDS011;5416;59.258;18.128;2023-02-13T08:36:29;4.05;;;3.95;;
10729;SDS011;5416;59.258;18.128;2023-02-13T08:38:57;4.30;;;4.20;;
10729;SDS011;5416;59.258;18.128;2023-02-13T08:41:25;4.40;;;4.30;;
10729;SDS011;5416;59.258;18.128;2023-02-13T08:43:52;3.58;;;3.47;;
10729;SDS011;5416;59.258;18.128;2023-02-13T08:46:20;3.95;;;3.85;;
10729;SDS011;5416;59.258;18.128;2023-02-13T08:48:47;3.75;;;3.65;;
10729;SDS011;5416;59.258;18.128;2023-02-13T08:51:14;3.50;;;3.40;;
10729;SDS011;5416;59.258;18.128;2023-02-13T08:53:42;3.78;;;3.67;;
10729;SDS011;5416;59.258;18.128;2023-02-13T08:56:10;3.40;;;3.30;;
10729;SDS011;5416;59.258;18.128;2023-02-13T08:58:38;4.00;;;3.90;;
10729;SDS011;5416;59.258;18.128;2023-02-13T09:01:07;3.80;;;3.70;;
10729;SDS011;5416;59.258;18.128;2023-02-13T09:03:34;3.90;;;3.80;;
10729;SDS011;5416;59.258;18.128;2023-02-13T09:06:02;3.88;;;3.78;;
10729;SDS011;5416;59.258;18.128;2023-02-13T09:08:29;3.67;;;3.58;;
10729;SDS011;5416;59.258;18.128;2023-02-13T09:10:57;3.47;;;3.38;;
10729;SDS011;5416;59.258;18.128;2023-02-13T09:13:27;3.85;;;3.75;;
10729;SDS011;5416;59.258;18.128;2023-02-13T09:15:56;3.60;;;3.50;;
10729;SDS011;5416;59.258;18.128;2023-02-13T09:18:24;3.83;;;3.72;;
10729;SDS011;5416;59.258;18.128;2023-02-13T09:20:56;4.10;;;4.00;;
10729;SDS011;5416;59.258;18.128;2023-02-13T09:23:23;3.90;;;3.80;;
10729;SDS011;5416;59.258;18.128;2023-02-13T09:25:51;3.73;;;3.63;;
10729;SDS011;5416;59.258;18.128;2023-02-13T09:28:18;3.97;;;3.88;;
10729;SDS011;5416;59.258;18.128;2023-02-13T09:30:47;3.70;;;3.60;;
10729;SDS011;5416;59.258;18.128;2023-02-13T09:33:14;3.75;;;3.65;;
10729;SDS011;5416;59.258;18.128;2023-02-13T09:35:41;4.20;;;4.10;;
10729;SDS011;5416;59.258;18.128;2023-02-13T09:38:09;3.92;;;3.83;;
10729;SDS011;5416;59.258;18.128;2023-02-13T09:40:38;3.75;;;3.65;;
10729;SDS011;5416;59.258;18.128;2023-02-13T09:43:11;3.90;;;3.80;;
10729;SDS011;5416;59.258;18.128;2023-02-13T09:45:38;3.95;;;3.85;;
10729;SDS011;5416;59.258;18.128;2023-02-13T09:48:08;4.10;;;4.00;;
10729;SDS011;5416;59.258;18.128;2023-02-13T09:50:41;4.30;;;4.20;;
10729;SDS011;5416;59.258;18.128;2023-02-13T09:53:08;4.10;;;4.00;;
10729;SDS011;5416;59.258;18.128;2023-02-13T09:55:42;4.07;;;3.97;;
10729;SDS011;5416;59.258;18.128;2023-02-13T09:58:18;4.40;;;4.30;;
10729;SDS011;5416;59.258;18.128;2023-02-13T10:00:49;4.10;;;4.00;;
10729;SDS011;5416;59.258;18.128;2023-02-13T10:03:20;4.00;;;3.90;;
10729;SDS011;5416;59.258;18.128;2023-02-13T10:11:31;4.55;;;4.45;;
10729;SDS011;5416;59.258;18.128;2023-02-13T10:14:04;3.70;;;3.60;;
10729;SDS011;5416;59.258;18.128;2023-02-13T10:16:34;4.20;;;4.10;;
10729;SDS011;5416;59.258;18.128;2023-02-13T10:19:04;4.10;;;4.00;;
10729;SDS011;5416;59.258;18.128;2023-02-13T10:21:38;4.22;;;4.13;;
10729;SDS011;5416;59.258;18.128;2023-02-13T10:24:09;3.88;;;3.78;;
10729;SDS011;5416;59.258;18.128;2023-02-13T10:26:38;3.97;;;3.87;;
10729;SDS011;5416;59.258;18.128;2023-02-13T10:29:12;4.07;;;3.97;;
10729;SDS011;5416;59.258;18.128;2023-02-13T10:31:58;3.97;;;3.88;;
10729;SDS011;5416;59.258;18.128;2023-02-13T10:34:27;3.60;;;3.50;;
10729;SDS011;5416;59.258;18.128;2023-02-13T10:36:58;4.10;;;4.00;;
10729;SDS011;5416;59.258;18.128;2023-02-13T10:39:27;3.90;;;3.80;;
10729;SDS011;5416;59.258;18.128;2023-02-13T10:41:57;3.80;;;3.70;;
10729;SDS011;5416;59.258;18.128;2023-02-13T10:44:31;4.07;;;3.97;;
10729;SDS011;5416;59.258;18.128;2023-02-13T10:47:04;3.80;;;3.70;;
10729;SDS011;5416;59.258;18.128;2023-02-13T10:49:38;3.55;;;3.45;;
10729;SDS011;5416;59.258;18.128;2023-02-13T10:52:10;3.83;;;3.72;;
10729;SDS011;5416;59.258;18.128;2023-02-13T10:54:50;4.05;;;3.95;;
10729;SDS011;5416;59.258;18.128;2023-02-13T10:57:21;4.30;;;4.20;;
10729;SDS011;5416;59.258;18.128;2023-02-13T10:59:53;3.85;;;3.75;;
10729;SDS011;5416;59.258;18.128;2023-02-13T11:02:26;3.90;;;3.80;;
10729;SDS011;5416;59.258;18.128;2023-02-13T11:04:56;4.30;;;4.20;;
10729;SDS011;5416;59.258;18.128;2023-02-13T11:07:24;3.80;;;3.70;;
10729;SDS011;5416;59.258;18.128;2023-02-13T11:09:52;3.90;;;3.80;;
10729;SDS011;5416;59.258;18.128;2023-02-13T11:12:25;4.13;;;4.03;;
10729;SDS011;5416;59.258;18.128;2023-02-13T11:14:52;3.90;;;3.80;;
10729;SDS011;5416;59.258;18.128;2023-02-13T11:17:20;4.00;;;3.90;;
10729;SDS011;5416;59.258;18.128;2023-02-13T11:19:49;4.32;;;4.22;;
10729;SDS011;5416;59.258;18.128;2023-02-13T11:22:26;4.30;;;4.20;;
10729;SDS011;5416;59.258;18.128;2023-02-13T11:24:54;3.70;;;3.60;;
10729;SDS011;5416;59.258;18.128;2023-02-13T11:27:22;3.80;;;3.70;;
10729;SDS011;5416;59.258;18.128;2023-02-13T11:29:51;4.07;;;3.97;;
10729;SDS011;5416;59.258;18.128;2023-02-13T11:32:20;3.60;;;3.50;;
10729;SDS011;5416;59.258;18.128;2023-02-13T11:34:47;4.22;;;4.13;;
10729;SDS011;5416;59.258;18.128;2023-02-13T11:37:20;3.87;;;3.77;;
10729;SDS011;5416;59.258;18.128;2023-02-13T11:39:49;4.17;;;4.07;;
10729;SDS011;5416;59.258;18.128;2023-02-13T11:42:19;3.97;;;3.87;;
10729;SDS011;5416;59.258;18.128;2023-02-13T11:44:50;3.55;;;3.45;;
10729;SDS011;5416;59.258;18.128;2023-02-13T11:47:28;4.20;;;4.10;;
10729;SDS011;5416;59.258;18.128;2023-02-13T11:49:56;3.80;;;3.70;;
10729;SDS011;5416;59.258;18.128;2023-02-13T11:52:25;4.25;;;4.15;;
10729;SDS011;5416;59.258;18.128;2023-02-13T11:54:56;3.88;;;3.78;;
10729;SDS011;5416;59.258;18.128;2023-02-13T11:57:25;4.22;;;4.13;;
10729;SDS011;5416;59.258;18.128;2023-02-13T11:59:54;3.80;;;3.70;;
10729;SDS011;5416;59.258;18.128;2023-02-13T12:02:23;4.15;;;4.05;;
10729;SDS011;5416;59.258;18.128;2023-02-13T12:04:51;3.85;;;3.75;;
10729;SDS011;5416;59.258;18.128;2023-02-13T12:07:19;3.92;;;3.83;;
10729;SDS011;5416;59.258;18.128;2023-02-13T12:09:47;3.90;;;3.80;;
10729;SDS011;5416;59.258;18.128;2023-02-13T12:12:20;4.40;;;4.30;;
10729;SDS011;5416;59.258;18.128;2023-02-13T12:14:48;4.03;;;3.92;;
10729;SDS011;5416;59.258;18.128;2023-02-13T12:17:16;3.72;;;3.63;;
10729;SDS011;5416;59.258;18.128;2023-02-13T12:19:45;4.30;;;4.20;;
10729;SDS011;5416;59.258;18.128;2023-02-13T12:22:17;3.97;;;3.87;;
10729;SDS011;5416;59.258;18.128;2023-02-13T12:24:54;4.25;;;4.15;;
10729;SDS011;5416;59.258;18.128;2023-02-13T12:27:27;3.72;;;3.63;;
10729;SDS011;5416;59.258;18.128;2023-02-13T12:30:05;3.80;;;3.70;;
10729;SDS011;5416;59.258;18.128;2023-02-13T12:32:37;3.97;;;3.88;;
10729;SDS011;5416;59.258;18.128;2023-02-13T12:35:17;3.70;;;3.60;;
10729;SDS011;5416;59.258;18.128;2023-02-13T12:37:57;4.03;;;3.92;;
10729;SDS011;5416;59.258;18.128;2023-02-13T12:43:20;4.35;;;4.25;;
10729;SDS011;5416;59.258;18.128;2023-02-13T12:45:55;4.00;;;3.90;;
10729;SDS011;5416;59.258;18.128;2023-02-13T12:48:27;3.60;;;3.50;;
10729;SDS011;5416;59.258;18.128;2023-02-13T12:51:15;4.35;;;4.25;;
10729;SDS011;5416;59.258;18.128;2023-02-13T12:53:50;3.70;;;3.60;;
10729;SDS011;5416;59.258;18.128;2023-02-13T12:56:27;4.15;;;4.05;;
10729;SDS011;5416;59.258;18.128;2023-02-13T12:59:02;3.70;;;3.60;;
10729;SDS011;5416;59.258;18.128;2023-02-13T13:04:16;3.88;;;3.78;;
10729;SDS011;5416;59.258;18.128;2023-02-13T13:09:39;4.10;;;4.00;;
10729;SDS011;5416;59.258;18.128;2023-02-13T13:12:21;4.25;;;4.15;;
10729;SDS011;5416;59.258;18.128;2023-02-13T13:14:52;3.97;;;3.87;;
10729;SDS011;5416;59.258;18.128;2023-02-13T13:17:25;4.00;;;3.90;;
10729;SDS011;5416;59.258;18.128;2023-02-13T13:19:56;4.47;;;4.38;;
10729;SDS011;5416;59.258;18.128;2023-02-13T13:22:26;3.97;;;3.88;;
10729;SDS011;5416;59.258;18.128;2023-02-13T13:25:00;4.95;;;4.75;;
10729;SDS011;5416;59.258;18.128;2023-02-13T13:27:31;4.10;;;4.00;;
10729;SDS011;5416;59.258;18.128;2023-02-13T13:30:00;3.90;;;3.80;;
10729;SDS011;5416;59.258;18.128;2023-02-13T13:32:28;4.82;;;4.63;;
10729;SDS011;5416;59.258;18.128;2023-02-13T13:34:56;4.10;;;4.00;;
10729;SDS011;5416;59.258;18.128;2023-02-13T13:37:26;3.83;;;3.72;;
10729;SDS011;5416;59.258;18.128;2023-02-13T13:39:56;4.20;;;4.10;;
10729;SDS011;5416;59.258;18.128;2023-02-13T13:42:29;4.57;;;4.45;;
10729;SDS011;5416;59.258;18.128;2023-02-13T13:45:01;4.18;;;4.07;;
10729;SDS011;5416;59.258;18.128;2023-02-13T13:50:21;4.40;;;4.30;;
10729;SDS011;5416;59.258;18.128;2023-02-13T13:53:05;3.85;;;3.75;;
10729;SDS011;5416;59.258;18.128;2023-02-13T13:58:22;4.03;;;3.92;;
10729;SDS011;5416;59.258;18.128;2023-02-13T14:03:35;4.28;;;4.18;;
10729;SDS011;5416;59.258;18.128;2023-02-13T14:06:04;4.10;;;4.00;;
10729;SDS011;5416;59.258;18.128;2023-02-13T14:17:01;4.13;;;4.03;;
10729;SDS011;5416;59.258;18.128;2023-02-13T14:19:29;4.20;;;4.10;;
10729;SDS011;5416;59.258;18.128;2023-02-13T14:24:53;3.78;;;3.67;;
10729;SDS011;5416;59.258;18.128;2023-02-13T14:27:21;4.00;;;3.90;;
10729;SDS011;5416;59.258;18.128;2023-02-13T14:29:49;4.25;;;4.15;;
10729;SDS011;5416;59.258;18.128;2023-02-13T14:32:19;4.65;;;4.53;;
10729;SDS011;5416;59.258;18.128;2023-02-13T14:34:50;3.80;;;3.70;;
10729;SDS011;5416;59.258;18.128;2023-02-13T14:37:19;3.75;;;3.65;;
10729;SDS011;5416;59.258;18.128;2023-02-13T14:42:52;4.30;;;4.20;;
10729;SDS011;5416;59.258;18.128;2023-02-13T14:45:21;4.38;;;4.28;;
10729;SDS011;5416;59.258;18.128;2023-02-13T14:47:53;4.25;;;4.15;;
10729;SDS011;5416;59.258;18.128;2023-02-13T14:50:21;4.88;;;4.68;;
10729;SDS011;5416;59.258;18.128;2023-02-13T14:52:49;4.30;;;4.20;;
10729;SDS011;5416;59.258;18.128;2023-02-13T14:55:19;4.00;;;3.90;;
10729;SDS011;5416;59.258;18.128;2023-02-13T14:57:56;3.83;;;3.72;;
10729;SDS011;5416;59.258;18.128;2023-02-13T15:00:30;4.03;;;3.92;;
10729;SDS011;5416;59.258;18.128;2023-02-13T15:03:03;3.50;;;3.40;;
10729;SDS011;5416;59.258;18.128;2023-02-13T15:05:31;3.88;;;3.78;;
10729;SDS011;5416;59.258;18.128;2023-02-13T15:08:02;4.07;;;3.97;;
10729;SDS011;5416;59.258;18.128;2023-02-13T15:10:33;4.00;;;3.90;;
10729;SDS011;5416;59.258;18.128;2023-02-13T15:13:02;3.58;;;3.47;;
10729;SDS011;5416;59.258;18.128;2023-02-13T15:15:30;3.83;;;3.72;;
10729;SDS011;5416;59.258;18.128;2023-02-13T15:17:59;3.88;;;3.78;;
10729;SDS011;5416;59.258;18.128;2023-02-13T15:20:29;3.67;;;3.58;;
10729;SDS011;5416;59.258;18.128;2023-02-13T15:22:58;3.95;;;3.85;;
10729;SDS011;5416;59.258;18.128;2023-02-13T15:25:28;3.70;;;3.60;;
10729;SDS011;5416;59.258;18.128;2023-02-13T15:27:57;3.80;;;3.70;;
10729;SDS011;5416;59.258;18.128;2023-02-13T15:30:25;3.72;;;3.63;;
10729;SDS011;5416;59.258;18.128;2023-02-13T15:32:53;3.67;;;3.58;;
10729;SDS011;5416;59.258;18.128;2023-02-13T15:35:22;4.22;;;4.13;;
10729;SDS011;5416;59.258;18.128;2023-02-13T15:37:51;3.72;;;3.63;;
10729;SDS011;5416;59.258;18.128;2023-02-13T15:40:23;3.38;;;3.28;;
10729;SDS011;5416;59.258;18.128;2023-02-13T15:42:50;3.90;;;3.80;;
10729;SDS011;5416;59.258;18.128;2023-02-13T15:45:18;3.63;;;3.53;;